Free Trial

John Hancock Mortgage-Backed Securities ETF (JHMB) Institutional Ownership

$21.92 +0.04 (+0.18%)
As of 04:10 PM Eastern

Institutional Ownership Changes (13F Filings) for John Hancock Mortgage-Backed Securities ETF (NYSEARCA:JHMB)

Number of
Institutional Buyers
(last 12 months)
28
Total
Institutional Inflows
(last 12 months)
$98.38M
Number of
Institutional Sellers
(last 12 months)
9
Total
Institutional Outflows
(last 12 months)
$21.42M
Get JHMB Insider Trade Alerts

Want to know when executives and insiders are buying or selling John Hancock Mortgage-Backed Securities ETF stock? Sign up for InsiderTrades.com's daily newsletter to get the latest insider transactions delivered to your inbox daily.

SMS is currently available in Australia, Belgium, Canada, France, Germany, Ireland, Italy, New Zealand, the Netherlands, Singapore, South Africa, Spain, Switzerland, the United Kingdom, and the United States. By entering your phone number and clicking the sign-up button, you agree to receive periodic text messages from MarketBeat at the phone number you submitted, including texts that may be sent using an automatic telephone dialing system. Message and data rates may apply. Message frequency will vary. Messages will consist of stock alerts, news stories, and partner advertisements/offers. Consent is not a condition of the purchase of any goods or services. Text HELP for help/customer support. Unsubscribe at any time by replying "STOP" to any text message that you receive from MarketBeat or by visiting our mailing preferences page. Read our full terms of service and privacy policy.
Skip Chart & View Institutional Buying and Selling Data

JHMB Institutional Buying and Selling by Quarter

John Hancock Mortgage-Backed Securities ETF Major Shareholders & Ownership History

Reporting DateMajor Shareholder NameShares HeldMarket Value% of PortfolioQuarterly Change in SharesOwnership in CompanyDetails
4/30/2026 Kestra Advisory Services LLC267,510$5.89M0.0%-55.7%2.724%
4/30/2026 Fidelity D & D Bancorp Inc.414,145$9.12M3.7%+7.1%4.217%
4/27/2026 Private Advisor Group LLC1,042,175$22.94M0.1%-4.0%10.613%
2/18/2026NewEdge Advisors LLC8,160$181K0.0%+2,450.0%0.088%
2/17/2026Cetera Investment Advisers18,218$404K0.0%N/A0.195%
2/17/2026Osaic Holdings Inc.17,612$390K0.0%+68.2%0.189%
2/17/2026 Private Advisor Group LLC1,085,694$24.06M0.1%+57.3%11.649%
2/13/2026 Kestra Advisory Services LLC604,230$13.39M0.1%+10.3%6.483%
2/13/2026The Manufacturers Life Insurance Company 402,262$8.91M0.0%-43.9%4.316%
2/12/2026 Commonwealth Equity Services LLC276,147$6.12M0.0%+7.6%2.963%
2/12/2026Steward Partners Investment Advisory LLC13,415$297K0.0%+15.7%0.144%
2/12/2026Great Valley Advisor Group Inc.135,726$3.01M0.1%+1.8%1.456%
2/11/2026LPL Financial LLC1,333,491$29.55M0.0%+13.9%14.308%
2/10/2026Goldman Sachs Group Inc.153,916$3.41M0.0%+1,109.7%1.651%
2/10/2026Natixis Advisors LLC15,216$337K0.0%N/A0.163%
2/9/2026 Fidelity D & D Bancorp Inc.386,870$8.57M3.7%+26.1%4.151%
2/6/2026Cadence Wealth Management LLC12,684$281K0.1%N/A0.136%
2/6/2026HighTower Advisors LLC1,069,309$23.70M0.0%+3.8%11.473%
2/4/2026 Peak Wealth Management LLC159,203$3.53M2.9%N/A1.730%
2/3/2026 Cabot Wealth Management Inc.683,277$15.14M1.7%-0.5%7.427%
1/26/2026 Iams Wealth Management LLC112,136$2.49M0.9%N/A1.274%
1/21/2026 Flagship Harbor Advisors LLC337,252$7.47M0.4%+7.3%3.854%
1/12/2026 FFG Retirement Advisors LLC325,944$7.22M4.5%+0.4%3.812%
1/1/2026JPMorgan Chase & Co.3,767$83K0.0%-89.1%0.050%
12/23/2025Triumph Capital Management1,996$44K0.0%N/A0.026%
11/17/2025Triumph Capital Management1,996$44K0.0%N/A0.026%
11/13/2025 Private Advisor Group LLC690,119$15.27M0.1%+709.2%9.141%
11/12/2025 Journey Strategic Wealth LLC492,313$10.90M0.3%+7.3%6.521%
11/7/2025JPMorgan Chase & Co.3,767$83K0.0%-89.1%0.050%
11/7/2025HighTower Advisors LLC1,030,323$22.80M0.0%+3.4%13.647%
11/5/2025 Flagship Harbor Advisors LLC314,292$6.96M0.3%+15.6%4.163%
11/4/2025Jones Financial Companies Lllp13,015$288K0.0%N/A0.172%
10/31/2025 Cabot Wealth Management Inc.686,820$15.20M1.7%-0.5%9.097%
10/22/2025 Commonwealth Equity Services LLC256,749$5.68M0.0%+3.9%3.446%
10/17/2025 FFG Retirement Advisors LLC324,701$7.19M4.5%-5.9%4.388%
8/15/2025High Falls Advisors Inc9,528$208K0.0%N/A0.144%
8/15/2025 Fidelity D & D Bancorp Inc.283,192$6.19M3.8%+23.1%4.291%
8/15/2025Great Valley Advisor Group Inc.133,609$2.92M0.1%N/A2.024%
8/14/2025Jane Street Group LLC36,277$793K0.0%-8.2%0.550%
8/14/2025The Manufacturers Life Insurance Company 526,167$11.51M0.0%-19.2%7.972%
8/14/2025NewEdge Advisors LLC80,065$1.75M0.0%+102.8%1.213%
8/13/2025Legacy Capital Wealth Partners LLC18,481$404K0.1%+3.4%0.280%
8/12/2025Steward Partners Investment Advisory LLC9,250$202K0.0%-39.5%0.140%
8/12/2025 Journey Strategic Wealth LLC458,748$10.03M0.3%+37.4%6.951%
8/12/2025JPMorgan Chase & Co.34,420$753K0.0%+608.8%0.522%
8/4/2025 Flagship Harbor Advisors LLC271,989$5.95M0.3%+8.0%4.044%
7/31/2025 Cabot Wealth Management Inc.689,953$15.09M1.8%+1.3%10.260%
7/25/2025MGO One Seven LLC221,718$4.85M0.2%+7.0%3.297%
6/27/2025Goldman Sachs Group Inc.13,982$306K0.0%N/A0.209%
5/19/2025Jane Street Group LLC39,504$865K0.0%N/A0.648%
5/16/2025Goldman Sachs Group Inc.13,982$306K0.0%N/A0.229%
5/16/2025NewEdge Advisors LLC39,475$864K0.0%+1,917.1%0.647%
5/14/2025Kestra Advisory Services LLC460,844$10.09M0.0%N/A7.555%
5/13/2025HighTower Advisors LLC989,588$21.66M0.0%+424.5%16.223%
5/12/2025Benjamin Edwards Inc.14,500$317K0.0%N/A0.238%
5/8/2025MGO One Seven LLC207,208$4.54M0.2%-20.6%3.397%
5/7/2025LPL Financial LLC458,357$10.03M0.0%+184.9%7.514%
5/6/2025Journey Strategic Wealth LLC333,991$7.31M0.3%N/A5.475%
5/2/2025Legacy Capital Wealth Partners LLC17,875$391K0.1%+5.0%0.314%
5/1/2025Fidelity D & D Bancorp Inc.230,065$5.04M3.3%+1.2%4.036%
4/29/2025U.S. Capital Wealth Advisors LLC16,384$359K0.0%-19.9%0.287%
4/29/2025Envestnet Asset Management Inc.18,736$410K0.0%+10.0%0.329%
4/22/2025Flagship Harbor Advisors LLC251,837$5.51M0.3%+9.7%4.418%
4/22/2025Cabot Wealth Management Inc.681,260$14.91M1.9%+0.3%11.952%
4/15/2025GPS Wealth Strategies Group LLC1,150$25K0.0%N/A0.020%
4/14/2025FFG Retirement Advisors LLC332,283$7.27M5.0%+44.1%5.830%
2/27/2025Fidelity D & D Bancorp Inc.227,403$4.89M3.3%+19.8%6.497%
2/21/2025Fidelity D & D Bancorp Inc.227,403$4.89M3.6%+19.8%6.497%
2/17/2025Citadel Advisors LLC15,919$342K0.0%N/A0.804%
2/14/2025The Manufacturers Life Insurance Company1,238,497$26.62M0.0%-17.6%62.550%
2/14/2025MGO One Seven LLC260,879$5.61M0.2%N/A13.176%
2/13/2025Envestnet Asset Management Inc.17,029$366K0.0%N/A0.860%
2/11/2025LPL Financial LLC160,902$3.46M0.0%+202.4%8.126%
2/10/2025Commonwealth Equity Services LLC164,851$3.54M0.0%+220.4%8.326%
2/7/2025HighTower Advisors LLC188,663$4.05M0.0%N/A9.528%
2/4/2025Cabot Wealth Management Inc.678,917$14.59M1.9%-0.8%34.289%
1/30/2025Legacy Capital Wealth Partners LLC17,029$366K0.1%N/A0.860%
1/22/2025FFG Retirement Advisors LLC230,579$4.96M3.2%N/A11.645%
1/21/2025Flagship Harbor Advisors LLC229,562$4.93M0.3%+32.1%11.594%
12/6/2024Fidelity D & D Bancorp Inc.189,766$4.24M2.8%+16.7%9.584%
11/13/2024The Manufacturers Life Insurance Company1,503,487$33.60M0.0%-4.1%75.934%
10/16/2024Nottingham Advisors Inc.11,690$261K0.0%N/A0.590%
10/15/2024Cabot Wealth Management Inc.684,737$15.30M1.9%+10.3%34.583%
8/21/2024Granite Bay Wealth Management LLC472,064$10.08M0.3%N/A23.842%
8/6/2024Fidelity D & D Bancorp Inc.162,578$3.50M2.6%+19.5%8.211%
7/31/2024Commonwealth Equity Services LLC45,847$986K0.0%+216.4%2.316%
7/15/2024Granite Bay Wealth Management LLC472,064$10.08M0.1%N/A23.842%
7/12/2024Cabot Wealth Management Inc.620,870$13.35M1.7%+1.1%31.357%
7/11/2024U.S. Capital Wealth Advisors LLC16,784$361K0.0%+19.0%0.848%
4/16/2024Fidelity D & D Bancorp Inc.136,100$2.94M2.2%+9.0%7.052%
2/13/2024The Manufacturers Life Insurance Company1,943,493$42.35M0.0%+43.9%155.479%
2/6/2024U.S. Capital Wealth Advisors LLC14,099$307K0.0%N/A1.128%
1/12/2024Fidelity D & D Bancorp Inc.124,875$2.72M2.1%+12.3%9.990%
11/30/2023Fidelity D & D Bancorp Inc.111,240$2.30M2.4%N/A8.899%
8/11/2023The Manufacturers Life Insurance Company1,350,137$29.05M0.0%-4.0%108.011%
7/13/2023Key Client Fiduciary Advisors LLC10,405$224K0.1%N/A0.846%
7/13/2023Cabot Wealth Management Inc.471,228$10.14M1.5%+5.2%38.311%
4/20/2023Cabot Wealth Management Inc.447,786$9.71M1.5%+26.6%36.405%
2/13/2023The Manufacturers Life Insurance Company1,436,130$30.42M0.0%-2.0%127.091%
1/31/2023Cabot Wealth Management Inc.353,592$7.49M1.3%+4.7%31.291%


JHMB Institutional Ownership - Frequently Asked Questions

Who are the largest shareholders of JHMB shares?

During the previous two years, 35 institutional investors and hedge funds held shares of John Hancock Mortgage-Backed Securities ETF. The most heavily invested institutionals were LPL Financial LLC ($29.55M), HighTower Advisors LLC ($23.70M), Private Advisor Group LLC ($22.94M), Cabot Wealth Management Inc. ($15.14M), Journey Strategic Wealth LLC ($10.90M), Granite Bay Wealth Management LLC ($10.08M), and Fidelity D & D Bancorp Inc. ($9.12M).Learn more on John Hancock Mortgage-Backed Securities ETF's institutional investors.

Which institutional investors have been buying John Hancock Mortgage-Backed Securities ETF's stock?

Of the 34 institutional investors that purchased John Hancock Mortgage-Backed Securities ETF's stock in the last 24 months, the following investors and hedge funds have bought the highest volume of shares: HighTower Advisors LLC ($1.06M), Private Advisor Group LLC ($1.00M), Granite Bay Wealth Management LLC ($944.13K), LPL Financial LLC ($567.74K), Kestra Advisory Services LLC ($517.11K), Journey Strategic Wealth LLC ($492.31K), and FFG Retirement Advisors LLC ($333.53K).

How much institutional buying is happening at John Hancock Mortgage-Backed Securities ETF?

Institutional investors have bought a total of 4,471,013 shares in the last 24 months. This purchase volume represents approximately $98.38M in transactions.

Which of John Hancock Mortgage-Backed Securities ETF's major shareholders have been selling company stock?

Of the 9 institutional investors that sold John Hancock Mortgage-Backed Securities ETF's stock in the last 24 months, the following investors and hedge funds have sold the highest volume of shares: The Manufacturers Life Insurance Company ($440.03K), Kestra Advisory Services LLC ($336.72K), JPMorgan Chase & Co. ($61.31K), MGO One Seven LLC ($53.67K), Private Advisor Group LLC ($43.52K), FFG Retirement Advisors LLC ($20.47K), and Cabot Wealth Management Inc. ($6.68K).

How much institutional selling is happening at John Hancock Mortgage-Backed Securities ETF?

Institutional investors have sold a total of 971,649 shares in the last 24 months. This volume of shares sold represents approximately $21.42M in transactions.



This page (NYSEARCA:JHMB) was last updated on 5/5/2026 by MarketBeat.com Staff.
From Our Partners